Time;durP1;ratioP1;P1;durP2;ratioP2;P2;SDS_P1;SDS_P2;PMS_P1;PMS_P2;Temp;Humidity;BMP_temperature;BMP_pressure;BME280_temperature;BME280_humidity;BME280_pressure;Samples;Min_cycle;Max_cycle;Signal;HPM_P1;HPM_P2
2023/07/01 00:01:04;;;;;;;30.52;15.50;;;;;;;;;;5016686;28;20041;-82
2023/07/01 00:03:31;;;;;;;32.25;15.63;;;;;;;;;;5012733;28;20042;-80
2023/07/01 00:05:58;;;;;;;29.42;15.77;;;;;;;;;;5013146;28;20045;-83
2023/07/01 00:08:25;;;;;;;27.58;16.33;;;;;;;;;;5007982;28;20527;-82
2023/07/01 00:10:52;;;;;;;32.60;16.45;;;;;;;;;;5017709;28;20078;-81
2023/07/01 00:13:19;;;;;;;30.20;15.13;;;;;;;;;;5028103;28;20099;-81
2023/07/01 00:15:45;;;;;;;26.67;14.95;;;;;;;;;;5029094;28;20051;-81
2023/07/01 00:18:12;;;;;;;27.60;13.20;;;;;;;;;;5030650;28;20045;-81
2023/07/01 00:20:39;;;;;;;39.53;13.77;;;;;;;;;;5030184;28;20056;-81
2023/07/01 00:23:05;;;;;;;27.40;12.95;;;;;;;;;;5029820;28;20481;-83
2023/07/01 00:25:32;;;;;;;28.45;13.98;;;;;;;;;;5031131;28;20107;-81
2023/07/01 00:27:59;;;;;;;25.00;13.27;;;;;;;;;;5031399;28;20095;-82
2023/07/01 00:30:25;;;;;;;26.90;13.05;;;;;;;;;;5032218;28;20051;-82
2023/07/01 00:32:52;;;;;;;22.63;11.95;;;;;;;;;;5031128;28;20068;-82
2023/07/01 00:35:19;;;;;;;21.58;12.13;;;;;;;;;;5016242;28;20071;-83
2023/07/01 00:37:45;;;;;;;26.20;13.70;;;;;;;;;;5031103;28;20555;-83
2023/07/01 00:40:12;;;;;;;31.27;13.63;;;;;;;;;;5015525;28;20107;-82
2023/07/01 00:42:39;;;;;;;25.63;12.90;;;;;;;;;;5031811;28;20149;-80
2023/07/01 00:45:05;;;;;;;23.90;13.32;;;;;;;;;;4997417;28;20199;-84
2023/07/01 00:47:32;;;;;;;27.02;13.77;;;;;;;;;;5012061;28;20049;-82
2023/07/01 00:49:59;;;;;;;23.40;13.50;;;;;;;;;;4996590;28;20110;-83
2023/07/01 00:52:26;;;;;;;28.10;13.93;;;;;;;;;;5019142;28;20041;-82
2023/07/01 00:54:52;;;;;;;29.38;13.45;;;;;;;;;;5053052;28;20049;-81
2023/07/01 00:57:19;;;;;;;29.85;13.45;;;;;;;;;;5011761;28;20574;-82
2023/07/01 00:59:45;;;;;;;22.80;12.65;;;;;;;;;;5012381;28;20042;-82
2023/07/01 01:02:19;;;;;;;19.08;12.50;;;;;;;;;;4995039;28;20041;-82
2023/07/01 01:05:01;;;;;;;28.00;13.13;;;;;;;;;;4993339;28;20525;-82
2023/07/01 01:07:30;;;;;;;23.00;12.27;;;;;;;;;;4982833;28;20053;-81
2023/07/01 01:10:01;;;;;;;23.38;11.88;;;;;;;;;;4983453;28;20076;-79
2023/07/01 01:12:29;;;;;;;23.80;12.85;;;;;;;;;;4999770;28;20662;-81
2023/07/01 01:14:57;;;;;;;23.40;12.25;;;;;;;;;;5016953;28;20042;-80
2023/07/01 01:17:24;;;;;;;22.27;12.35;;;;;;;;;;5013477;28;20062;-80
2023/07/01 01:19:54;;;;;;;22.20;11.77;;;;;;;;;;4978589;28;20049;-81
2023/07/01 01:22:26;;;;;;;20.02;11.73;;;;;;;;;;4980057;28;20030;-80
2023/07/01 01:24:57;;;;;;;24.00;12.40;;;;;;;;;;5013276;28;20045;-80
2023/07/01 01:27:26;;;;;;;23.27;12.27;;;;;;;;;;4995247;28;20042;-79
2023/07/01 01:29:52;;;;;;;24.50;11.55;;;;;;;;;;5017517;28;20553;-80
2023/07/01 01:32:19;;;;;;;20.08;12.70;;;;;;;;;;5016149;28;20106;-81
2023/07/01 01:34:46;;;;;;;19.88;12.55;;;;;;;;;;4999821;28;20077;-80
2023/07/01 01:37:29;;;;;;;21.67;12.23;;;;;;;;;;4983685;28;20577;-79
2023/07/01 01:40:00;;;;;;;22.35;12.15;;;;;;;;;;5022709;28;20057;-81
2023/07/01 01:42:30;;;;;;;27.25;13.88;;;;;;;;;;4994303;28;20046;-80
2023/07/01 01:44:57;;;;;;;31.15;12.82;;;;;;;;;;5012436;28;20068;-81
2023/07/01 01:47:25;;;;;;;27.33;13.02;;;;;;;;;;4996388;28;20053;-79
2023/07/01 01:49:54;;;;;;;26.92;13.93;;;;;;;;;;4998204;28;20417;-80
2023/07/01 01:52:21;;;;;;;30.38;13.50;;;;;;;;;;5015166;28;20470;-80
2023/07/01 01:54:50;;;;;;;25.88;13.77;;;;;;;;;;5019661;28;20107;-78
2023/07/01 01:57:16;;;;;;;22.70;12.85;;;;;;;;;;5002828;28;20077;-80
2023/07/01 01:59:43;;;;;;;27.45;13.20;;;;;;;;;;4994494;28;20042;-80
2023/07/01 02:02:10;;;;;;;26.75;13.50;;;;;;;;;;4995263;28;20137;-81
2023/07/01 02:04:37;;;;;;;30.27;14.73;;;;;;;;;;4995814;28;20449;-80
2023/07/01 02:07:04;;;;;;;28.73;14.30;;;;;;;;;;4995985;28;20057;-80
2023/07/01 02:09:31;;;;;;;30.15;14.10;;;;;;;;;;4994041;28;20608;-80
2023/07/01 02:11:58;;;;;;;28.08;15.20;;;;;;;;;;4978184;28;20410;-80
2023/07/01 02:14:25;;;;;;;31.90;14.55;;;;;;;;;;4993995;28;20048;-80
2023/07/01 02:16:52;;;;;;;27.35;14.80;;;;;;;;;;4993176;28;20066;-81
2023/07/01 02:19:19;;;;;;;32.42;15.20;;;;;;;;;;4993932;28;20554;-80
2023/07/01 02:21:45;;;;;;;32.90;15.02;;;;;;;;;;4995469;28;20046;-81
2023/07/01 02:24:12;;;;;;;30.08;16.80;;;;;;;;;;4994142;28;20055;-81
2023/07/01 02:26:39;;;;;;;31.80;16.27;;;;;;;;;;4977477;28;20037;-80
2023/07/01 02:29:08;;;;;;;37.10;18.05;;;;;;;;;;4994465;28;20563;-80
2023/07/01 02:31:35;;;;;;;33.28;17.65;;;;;;;;;;4979333;28;20079;-80
2023/07/01 02:34:02;;;;;;;39.03;18.65;;;;;;;;;;4996914;28;20046;-80
2023/07/01 02:36:29;;;;;;;33.05;16.88;;;;;;;;;;4994586;28;20041;-80
2023/07/01 02:38:56;;;;;;;32.83;16.73;;;;;;;;;;4999257;28;20502;-81
2023/07/01 02:41:22;;;;;;;36.15;18.23;;;;;;;;;;5000361;28;20061;-80
2023/07/01 02:43:49;;;;;;;33.67;18.80;;;;;;;;;;5003159;28;20077;-81
2023/07/01 02:46:16;;;;;;;41.20;18.02;;;;;;;;;;5016610;28;20050;-82
2023/07/01 02:48:43;;;;;;;37.50;19.27;;;;;;;;;;5016625;28;20065;-81
2023/07/01 02:51:09;;;;;;;38.30;19.67;;;;;;;;;;5016175;28;20596;-80
2023/07/01 02:53:36;;;;;;;35.20;19.55;;;;;;;;;;5001210;28;20068;-81
2023/07/01 02:56:03;;;;;;;35.40;19.27;;;;;;;;;;5015719;28;20104;-81
2023/07/01 02:58:30;;;;;;;41.53;20.33;;;;;;;;;;5013959;28;20064;-79
2023/07/01 03:00:56;;;;;;;44.28;21.42;;;;;;;;;;5009152;28;20073;-80
2023/07/01 03:03:23;;;;;;;39.92;20.13;;;;;;;;;;5008627;28;20054;-80
2023/07/01 03:05:50;;;;;;;41.28;19.80;;;;;;;;;;5008844;28;20057;-80
2023/07/01 03:08:17;;;;;;;45.50;20.45;;;;;;;;;;4993299;28;20038;-80
2023/07/01 03:10:44;;;;;;;34.00;19.48;;;;;;;;;;5009013;28;20407;-80
2023/07/01 03:13:11;;;;;;;41.42;19.73;;;;;;;;;;5010996;28;20495;-80
2023/07/01 03:15:37;;;;;;;34.40;19.05;;;;;;;;;;4994623;28;20514;-78
2023/07/01 03:18:05;;;;;;;31.48;18.40;;;;;;;;;;4994226;28;20499;-80
2023/07/01 03:20:31;;;;;;;36.22;18.52;;;;;;;;;;4995420;28;20407;-80
2023/07/01 03:22:58;;;;;;;35.40;18.55;;;;;;;;;;4995632;28;20038;-81
2023/07/01 03:25:26;;;;;;;36.25;18.80;;;;;;;;;;5011858;28;20057;-80
2023/07/01 03:27:52;;;;;;;36.22;18.52;;;;;;;;;;5014414;28;20045;-80
2023/07/01 03:30:22;;;;;;;39.80;19.40;;;;;;;;;;5028363;28;20057;-82
2023/07/01 03:32:48;;;;;;;40.63;19.50;;;;;;;;;;5021113;28;20524;-82
2023/07/01 03:35:15;;;;;;;34.15;18.83;;;;;;;;;;5022446;28;20052;-80
2023/07/01 03:37:43;;;;;;;37.60;18.60;;;;;;;;;;4999817;28;20065;-82
2023/07/01 03:40:13;;;;;;;33.70;18.95;;;;;;;;;;4995120;28;20423;-79
2023/07/01 03:42:40;;;;;;;39.90;19.30;;;;;;;;;;5006015;28;20153;-81
2023/07/01 03:45:08;;;;;;;35.28;17.60;;;;;;;;;;5002416;28;20081;-81
2023/07/01 03:47:35;;;;;;;34.10;17.55;;;;;;;;;;5010011;28;20041;-81
2023/07/01 03:50:01;;;;;;;34.92;17.25;;;;;;;;;;5016485;28;20107;-81
2023/07/01 03:52:28;;;;;;;33.67;16.77;;;;;;;;;;5011857;28;20046;-79
2023/07/01 03:54:57;;;;;;;30.00;16.13;;;;;;;;;;5004227;28;20142;-81
2023/07/01 03:57:23;;;;;;;31.38;16.17;;;;;;;;;;5003593;28;20042;-81
2023/07/01 03:59:50;;;;;;;30.05;15.73;;;;;;;;;;4993292;28;20064;-81
2023/07/01 04:02:17;;;;;;;27.95;15.65;;;;;;;;;;4978773;28;20049;-81
2023/07/01 04:04:43;;;;;;;30.70;14.85;;;;;;;;;;4996396;28;20041;-81
2023/07/01 04:07:10;;;;;;;33.22;15.20;;;;;;;;;;5031554;28;20547;-80
2023/07/01 04:09:37;;;;;;;29.63;15.57;;;;;;;;;;4998988;28;20065;-81
2023/07/01 04:12:04;;;;;;;30.02;14.70;;;;;;;;;;5019521;28;20045;-81
2023/07/01 04:14:31;;;;;;;31.90;14.90;;;;;;;;;;5038161;28;20093;-81
2023/07/01 04:16:57;;;;;;;27.27;14.05;;;;;;;;;;5039105;28;20084;-82
2023/07/01 04:19:24;;;;;;;25.85;14.30;;;;;;;;;;5020016;28;20119;-81
2023/07/01 04:21:50;;;;;;;26.67;14.10;;;;;;;;;;5004080;28;20042;-81
2023/07/01 04:24:17;;;;;;;22.00;13.93;;;;;;;;;;5038395;28;20045;-81
2023/07/01 04:26:44;;;;;;;26.88;13.40;;;;;;;;;;5017939;28;20109;-81
2023/07/01 04:29:11;;;;;;;22.30;13.45;;;;;;;;;;5036004;28;20045;-81
2023/07/01 04:31:38;;;;;;;21.60;11.93;;;;;;;;;;5002193;28;20049;-81
2023/07/01 04:34:05;;;;;;;23.13;11.95;;;;;;;;;;5004153;28;20045;-82
2023/07/01 04:36:31;;;;;;;20.80;12.27;;;;;;;;;;5018224;28;20112;-82
2023/07/01 04:38:58;;;;;;;22.25;12.45;;;;;;;;;;5019724;28;20042;-82
2023/07/01 04:41:25;;;;;;;24.77;11.73;;;;;;;;;;5036978;28;20054;-80
2023/07/01 04:43:51;;;;;;;19.83;11.48;;;;;;;;;;5018694;28;20049;-81
2023/07/01 04:46:18;;;;;;;20.52;12.80;;;;;;;;;;5003388;28;20110;-80
2023/07/01 04:48:44;;;;;;;21.83;12.30;;;;;;;;;;5010823;28;20041;-80
2023/07/01 04:51:11;;;;;;;21.23;11.68;;;;;;;;;;5011555;28;20033;-80
2023/07/01 04:53:38;;;;;;;20.13;11.23;;;;;;;;;;5019208;28;20080;-81
2023/07/01 04:56:04;;;;;;;17.55;10.95;;;;;;;;;;5020599;28;20525;-81
2023/07/01 04:58:31;;;;;;;17.55;10.75;;;;;;;;;;5007261;28;20140;-82
2023/07/01 05:00:58;;;;;;;17.58;11.27;;;;;;;;;;5036776;28;20056;-81
2023/07/01 05:03:25;;;;;;;17.45;10.35;;;;;;;;;;5024174;28;20052;-76
2023/07/01 05:05:51;;;;;;;14.40;10.07;;;;;;;;;;4994623;28;20046;-81
2023/07/01 05:08:18;;;;;;;19.95;10.20;;;;;;;;;;5043091;28;20056;-80
2023/07/01 05:10:45;;;;;;;18.08;10.25;;;;;;;;;;4993095;28;20121;-80
2023/07/01 05:13:12;;;;;;;15.50;9.45;;;;;;;;;;5018637;28;20058;-79
2023/07/01 05:15:39;;;;;;;17.10;9.05;;;;;;;;;;5030343;28;20065;-80
2023/07/01 05:18:05;;;;;;;18.65;9.00;;;;;;;;;;5034521;28;20111;-79
2023/07/01 05:20:32;;;;;;;16.30;9.15;;;;;;;;;;5013667;28;20059;-80
2023/07/01 05:22:59;;;;;;;15.98;8.25;;;;;;;;;;5038045;28;20042;-81
2023/07/01 05:25:25;;;;;;;15.02;8.50;;;;;;;;;;5023057;28;20086;-83
2023/07/01 05:27:52;;;;;;;14.18;8.60;;;;;;;;;;5020702;28;20126;-81
2023/07/01 05:30:18;;;;;;;13.23;8.45;;;;;;;;;;5011793;28;20104;-80
2023/07/01 05:32:45;;;;;;;13.38;7.30;;;;;;;;;;5010958;28;20041;-82
2023/07/01 05:35:12;;;;;;;11.68;8.05;;;;;;;;;;5010769;28;20514;-80
2023/07/01 05:37:38;;;;;;;12.98;6.63;;;;;;;;;;5010903;28;20505;-81
2023/07/01 05:40:05;;;;;;;17.60;7.35;;;;;;;;;;4994975;28;20490;-80
2023/07/01 05:42:31;;;;;;;12.93;6.80;;;;;;;;;;5010776;28;20048;-80
2023/07/01 05:44:58;;;;;;;11.40;6.05;;;;;;;;;;5008299;28;20080;-80
2023/07/01 05:47:25;;;;;;;12.30;5.30;;;;;;;;;;5014250;28;20513;-81
2023/07/01 05:49:51;;;;;;;13.38;5.80;;;;;;;;;;5022881;28;20049;-80
2023/07/01 05:52:18;;;;;;;8.50;4.93;;;;;;;;;;5009526;28;20053;-81
2023/07/01 05:54:44;;;;;;;9.77;5.35;;;;;;;;;;4994321;28;20045;-81
2023/07/01 05:57:11;;;;;;;6.82;4.55;;;;;;;;;;5021274;28;20068;-81
2023/07/01 05:59:37;;;;;;;8.85;4.88;;;;;;;;;;5009847;28;20057;-80
2023/07/01 06:02:04;;;;;;;8.50;4.43;;;;;;;;;;5006101;28;20068;-81
2023/07/01 06:04:33;;;;;;;11.75;4.82;;;;;;;;;;5004872;28;20459;-82
2023/07/01 06:07:00;;;;;;;7.43;3.72;;;;;;;;;;5035422;28;20048;-82
2023/07/01 06:09:26;;;;;;;9.68;4.10;;;;;;;;;;5010106;28;20064;-81
2023/07/01 06:11:53;;;;;;;6.60;3.85;;;;;;;;;;5005152;28;20529;-82
2023/07/01 06:14:19;;;;;;;10.93;4.45;;;;;;;;;;5014736;28;20558;-83
2023/07/01 06:16:46;;;;;;;8.57;3.63;;;;;;;;;;5018902;28;20466;-82
2023/07/01 06:19:13;;;;;;;7.38;4.00;;;;;;;;;;4997008;28;20062;-81
2023/07/01 06:21:39;;;;;;;9.52;3.50;;;;;;;;;;5012274;28;20052;-79
2023/07/01 06:24:06;;;;;;;7.80;3.60;;;;;;;;;;5004194;28;20033;-80
2023/07/01 06:26:32;;;;;;;7.63;3.25;;;;;;;;;;5027687;28;20037;-81
2023/07/01 06:29:02;;;;;;;7.78;3.10;;;;;;;;;;5033817;28;20425;-81
2023/07/01 06:31:29;;;;;;;8.02;3.10;;;;;;;;;;5034798;28;20037;-79
2023/07/01 06:33:56;;;;;;;10.77;3.45;;;;;;;;;;5006822;28;20047;-79
2023/07/01 06:36:22;;;;;;;5.53;2.60;;;;;;;;;;5004759;28;20112;-81
2023/07/01 06:38:49;;;;;;;5.93;2.78;;;;;;;;;;5022763;28;20541;-77
2023/07/01 06:41:15;;;;;;;7.68;3.00;;;;;;;;;;4990704;28;20578;-79
2023/07/01 06:43:42;;;;;;;7.35;2.80;;;;;;;;;;5011484;28;20133;-80
2023/07/01 06:46:09;;;;;;;8.38;3.35;;;;;;;;;;5011318;28;20466;-80
2023/07/01 06:48:36;;;;;;;8.68;2.95;;;;;;;;;;5008944;28;20102;-83
2023/07/01 06:51:04;;;;;;;6.70;2.80;;;;;;;;;;5005068;28;20071;-80
2023/07/01 06:53:31;;;;;;;8.88;3.50;;;;;;;;;;5011490;28;20049;-80
2023/07/01 06:55:57;;;;;;;6.68;2.90;;;;;;;;;;5006412;28;20529;-78
2023/07/01 06:58:24;;;;;;;6.80;2.70;;;;;;;;;;5004153;28;20057;-79
2023/07/01 07:00:50;;;;;;;4.70;2.35;;;;;;;;;;5019206;28;20042;-82
2023/07/01 07:03:17;;;;;;;4.63;2.10;;;;;;;;;;5011066;28;20060;-81
2023/07/01 07:05:44;;;;;;;10.52;2.95;;;;;;;;;;5017805;28;20053;-83
2023/07/01 07:08:10;;;;;;;3.88;2.30;;;;;;;;;;5028948;28;20547;-78
2023/07/01 07:10:37;;;;;;;5.32;2.50;;;;;;;;;;5027992;28;20115;-79
2023/07/01 07:13:04;;;;;;;7.13;2.35;;;;;;;;;;5009821;28;20134;-76
2023/07/01 07:15:30;;;;;;;6.43;2.10;;;;;;;;;;5013949;28;20037;-76
2023/07/01 07:17:59;;;;;;;7.65;2.28;;;;;;;;;;4994976;28;20062;-76
2023/07/01 07:20:26;;;;;;;7.18;2.55;;;;;;;;;;4991102;28;20128;-81
2023/07/01 07:22:53;;;;;;;6.07;2.40;;;;;;;;;;4974566;28;20495;-76
2023/07/01 07:25:19;;;;;;;5.78;2.20;;;;;;;;;;5007716;28;20080;-76
2023/07/01 07:27:46;;;;;;;6.50;2.55;;;;;;;;;;4992648;28;20257;-83
2023/07/01 07:30:13;;;;;;;5.32;2.17;;;;;;;;;;4982686;28;20049;-81
2023/07/01 07:32:40;;;;;;;7.18;2.60;;;;;;;;;;4996337;28;20060;-82
2023/07/01 07:35:10;;;;;;;6.60;2.67;;;;;;;;;;5000717;28;20041;-80
2023/07/01 07:37:39;;;;;;;6.10;2.45;;;;;;;;;;5036949;28;20041;-82
2023/07/01 07:40:07;;;;;;;6.90;2.33;;;;;;;;;;5031284;28;20111;-81
2023/07/01 07:42:34;;;;;;;5.78;2.72;;;;;;;;;;5031273;28;20531;-81
2023/07/01 07:45:03;;;;;;;7.80;2.88;;;;;;;;;;5009646;28;20062;-80
2023/07/01 07:47:30;;;;;;;7.45;2.88;;;;;;;;;;5011931;28;20085;-80
2023/07/01 07:49:56;;;;;;;4.88;2.88;;;;;;;;;;5013393;28;20033;-80
2023/07/01 07:52:23;;;;;;;4.97;2.95;;;;;;;;;;5011374;28;20052;-83
2023/07/01 07:54:50;;;;;;;8.63;3.00;;;;;;;;;;5028967;28;20413;-80
2023/07/01 07:57:16;;;;;;;7.95;2.72;;;;;;;;;;5028077;28;20293;-80
2023/07/01 07:59:43;;;;;;;7.10;2.78;;;;;;;;;;5013798;28;20041;-84
2023/07/01 08:02:10;;;;;;;5.70;2.72;;;;;;;;;;5033447;28;20116;-82
2023/07/01 08:04:36;;;;;;;7.22;2.92;;;;;;;;;;5033350;28;20039;-83
2023/07/01 08:07:03;;;;;;;8.13;3.10;;;;;;;;;;5012347;28;20045;-82
2023/07/01 08:09:31;;;;;;;6.38;2.80;;;;;;;;;;5011054;28;20107;-81
2023/07/01 08:12:00;;;;;;;7.72;2.70;;;;;;;;;;5027867;28;20113;-83
2023/07/01 08:14:27;;;;;;;7.72;3.30;;;;;;;;;;4993434;28;20050;-83
2023/07/01 08:16:54;;;;;;;8.38;3.42;;;;;;;;;;5028169;28;20061;-82
2023/07/01 08:19:20;;;;;;;7.43;3.05;;;;;;;;;;5010252;28;20041;-83
2023/07/01 08:21:47;;;;;;;10.05;3.25;;;;;;;;;;5028043;28;20068;-83
2023/07/01 08:24:14;;;;;;;5.65;3.03;;;;;;;;;;5011035;28;20041;-82
2023/07/01 08:26:41;;;;;;;7.97;3.80;;;;;;;;;;5010793;28;20037;-82
2023/07/01 08:29:08;;;;;;;5.10;3.13;;;;;;;;;;5010384;28;20046;-82
2023/07/01 08:31:34;;;;;;;6.22;3.10;;;;;;;;;;5028600;28;20083;-84
2023/07/01 08:34:02;;;;;;;9.32;3.08;;;;;;;;;;5010456;28;20052;-83
2023/07/01 08:36:28;;;;;;;8.82;2.97;;;;;;;;;;4994650;28;20045;-85
2023/07/01 08:38:55;;;;;;;8.02;2.65;;;;;;;;;;4994058;28;20506;-81
2023/07/01 08:41:24;;;;;;;9.30;2.80;;;;;;;;;;4993546;28;20111;-85
2023/07/01 08:43:53;;;;;;;5.05;2.58;;;;;;;;;;4992884;28;20509;-83
2023/07/01 08:46:20;;;;;;;4.97;2.50;;;;;;;;;;5007934;28;20410;-85
2023/07/01 08:48:47;;;;;;;9.05;3.35;;;;;;;;;;5008532;28;20614;-83
2023/07/01 08:51:29;;;;;;;6.70;2.70;;;;;;;;;;5010948;28;20046;-86
2023/07/01 08:53:56;;;;;;;5.60;2.53;;;;;;;;;;5008468;28;20052;-86
2023/07/01 08:56:23;;;;;;;5.35;2.33;;;;;;;;;;5007508;28;20056;-83
2023/07/01 08:58:50;;;;;;;8.35;2.20;;;;;;;;;;4992289;28;20049;-85
2023/07/01 09:01:17;;;;;;;5.22;2.13;;;;;;;;;;4992323;28;20052;-83
2023/07/01 09:03:48;;;;;;;5.40;2.38;;;;;;;;;;5009144;28;20052;-86
2023/07/01 09:06:15;;;;;;;5.57;2.25;;;;;;;;;;5011514;28;20053;-86
2023/07/01 09:08:41;;;;;;;4.97;2.25;;;;;;;;;;5010760;28;20048;-84
2023/07/01 09:11:15;;;;;;;4.05;2.30;;;;;;;;;;5010449;28;20053;-87
2023/07/01 09:13:42;;;;;;;4.30;2.28;;;;;;;;;;5011426;28;20045;-85
2023/07/01 09:16:11;;;;;;;7.40;2.05;;;;;;;;;;5029296;28;20140;-85
2023/07/01 09:18:42;;;;;;;4.68;2.38;;;;;;;;;;5011625;28;20091;-85
2023/07/01 09:21:16;;;;;;;5.10;2.25;;;;;;;;;;5011844;28;20050;-86
2023/07/01 09:23:45;;;;;;;3.83;2.22;;;;;;;;;;5012683;28;20089;-84
2023/07/01 09:26:14;;;;;;;8.38;2.33;;;;;;;;;;5032022;28;20432;-84
2023/07/01 09:28:42;;;;;;;3.75;1.95;;;;;;;;;;5012651;28;20125;-86
2023/07/01 09:31:09;;;;;;;4.20;2.40;;;;;;;;;;5038130;28;20045;-84
2023/07/01 09:33:37;;;;;;;6.43;2.40;;;;;;;;;;5010076;28;20045;-85
2023/07/01 09:36:07;;;;;;;4.72;2.30;;;;;;;;;;5033681;28;20065;-84
2023/07/01 09:38:35;;;;;;;4.72;2.10;;;;;;;;;;5018646;28;20049;-84
2023/07/01 09:41:11;;;;;;;3.60;1.90;;;;;;;;;;5014244;28;20052;-86
2023/07/01 09:43:38;;;;;;;3.45;2.17;;;;;;;;;;5012806;28;20665;-85
2023/07/01 09:46:04;;;;;;;5.85;2.35;;;;;;;;;;5013221;28;20125;-83
2023/07/01 09:48:33;;;;;;;6.47;2.20;;;;;;;;;;5013947;28;20501;-84
2023/07/01 09:51:00;;;;;;;5.00;2.10;;;;;;;;;;5013856;28;20073;-84
2023/07/01 09:53:29;;;;;;;4.32;2.40;;;;;;;;;;5015856;28;20050;-84
2023/07/01 09:55:56;;;;;;;4.88;2.00;;;;;;;;;;5019154;28;20123;-82
2023/07/01 09:58:23;;;;;;;4.68;2.00;;;;;;;;;;5003047;28;20042;-82
2023/07/01 10:00:50;;;;;;;3.97;1.83;;;;;;;;;;5017023;28;20042;-82
2023/07/01 10:03:18;;;;;;;6.13;2.00;;;;;;;;;;4999369;28;20042;-84
2023/07/01 10:05:48;;;;;;;4.50;2.20;;;;;;;;;;5000887;28;20041;-84
2023/07/01 10:08:15;;;;;;;3.67;1.80;;;;;;;;;;4999755;28;20054;-83
2023/07/01 10:10:42;;;;;;;5.68;2.25;;;;;;;;;;5027760;28;20064;-87
2023/07/01 10:13:09;;;;;;;4.28;1.50;;;;;;;;;;5038947;28;20044;-85
2023/07/01 10:15:36;;;;;;;7.85;2.13;;;;;;;;;;5058119;28;20076;-83
2023/07/01 10:18:02;;;;;;;5.72;2.08;;;;;;;;;;5040775;28;20044;-82
2023/07/01 10:20:30;;;;;;;3.38;1.95;;;;;;;;;;5060601;28;20103;-83
2023/07/01 10:23:06;;;;;;;5.97;2.20;;;;;;;;;;5040236;28;20060;-87
2023/07/01 10:25:32;;;;;;;6.53;1.77;;;;;;;;;;5039348;28;20048;-84
2023/07/01 10:28:02;;;;;;;5.72;2.10;;;;;;;;;;5042971;28;20100;-85
2023/07/01 10:30:41;;;;;;;3.60;1.80;;;;;;;;;;5050096;28;20079;-84
2023/07/01 10:33:27;;;;;;;7.55;1.98;;;;;;;;;;5042368;28;20076;-82
2023/07/01 10:36:03;;;;;;;3.20;1.70;;;;;;;;;;5014652;28;20049;-86
2023/07/01 10:38:32;;;;;;;3.00;1.80;;;;;;;;;;5040492;28;20060;-86
2023/07/01 10:40:59;;;;;;;6.38;1.85;;;;;;;;;;5043883;28;20046;-83
2023/07/01 10:43:29;;;;;;;6.82;2.20;;;;;;;;;;5026371;28;20058;-83
2023/07/01 10:46:10;;;;;;;4.18;2.60;;;;;;;;;;5018049;28;20095;-83
2023/07/01 10:49:03;;;;;;;6.05;1.75;;;;;;;;;;5008029;28;20049;-83
2023/07/01 10:51:33;;;;;;;5.57;2.28;;;;;;;;;;5028558;28;20049;-84
2023/07/01 10:54:04;;;;;;;5.05;2.30;;;;;;;;;;5015613;28;20052;-86
2023/07/01 10:56:31;;;;;;;5.25;2.38;;;;;;;;;;5004692;28;20123;-84
2023/07/01 10:59:16;;;;;;;7.47;2.70;;;;;;;;;;5018041;28;20049;-83
2023/07/01 11:01:44;;;;;;;4.97;2.47;;;;;;;;;;5018963;28;20105;-86
2023/07/01 11:04:11;;;;;;;6.47;2.60;;;;;;;;;;5010175;28;20048;-84
2023/07/01 11:06:45;;;;;;;4.07;2.25;;;;;;;;;;5004386;28;20049;-84
2023/07/01 11:09:13;;;;;;;3.95;2.25;;;;;;;;;;4997848;28;20124;-84
2023/07/01 11:11:39;;;;;;;4.05;2.40;;;;;;;;;;5034398;28;20055;-87
2023/07/01 11:14:08;;;;;;;3.72;2.08;;;;;;;;;;5007563;28;20046;-85
2023/07/01 11:16:36;;;;;;;9.25;2.22;;;;;;;;;;5005634;28;20046;-85
2023/07/01 11:19:06;;;;;;;2.88;2.00;;;;;;;;;;4990819;28;20077;-87
2023/07/01 11:21:33;;;;;;;3.42;2.03;;;;;;;;;;4999864;28;20046;-88
2023/07/01 11:24:03;;;;;;;5.95;1.90;;;;;;;;;;4996385;28;20056;-84
2023/07/01 11:26:31;;;;;;;4.10;2.20;;;;;;;;;;5019556;28;20067;-83
2023/07/01 11:28:58;;;;;;;7.20;2.30;;;;;;;;;;5009625;28;20108;-81
2023/07/01 11:31:25;;;;;;;6.35;2.17;;;;;;;;;;5018151;28;20548;-83
2023/07/01 11:33:53;;;;;;;7.25;2.38;;;;;;;;;;5043783;28;20059;-84
2023/07/01 11:36:21;;;;;;;4.55;2.13;;;;;;;;;;5054563;28;20045;-81
2023/07/01 11:38:48;;;;;;;7.40;2.13;;;;;;;;;;5038880;28;20060;-82
2023/07/01 11:41:19;;;;;;;7.18;2.97;;;;;;;;;;5020393;28;20044;-82
2023/07/01 11:43:46;;;;;;;9.15;2.80;;;;;;;;;;5034544;28;20069;-82
2023/07/01 11:46:13;;;;;;;5.22;2.92;;;;;;;;;;5016089;28;20107;-82
2023/07/01 11:48:41;;;;;;;4.53;2.60;;;;;;;;;;5026923;28;20493;-80
2023/07/01 11:51:08;;;;;;;5.30;2.65;;;;;;;;;;5038294;28;20092;-82
2023/07/01 11:53:56;;;;;;;4.40;2.60;;;;;;;;;;5037199;28;20053;-80
2023/07/01 11:56:23;;;;;;;8.75;3.50;;;;;;;;;;5031348;28;20413;-84
2023/07/01 11:58:50;;;;;;;7.03;3.25;;;;;;;;;;4999271;28;20505;-80
2023/07/01 12:01:26;;;;;;;4.70;3.35;;;;;;;;;;5017008;28;20041;-82
2023/07/01 12:03:54;;;;;;;9.50;3.60;;;;;;;;;;4999153;28;20129;-85
2023/07/01 12:06:25;;;;;;;8.55;3.10;;;;;;;;;;5017713;28;20053;-82
2023/07/01 12:08:56;;;;;;;6.18;2.95;;;;;;;;;;5004918;28;20037;-82
2023/07/01 12:11:47;;;;;;;11.63;3.22;;;;;;;;;;5012247;28;20050;-81
2023/07/01 12:14:21;;;;;;;6.47;3.30;;;;;;;;;;4978313;28;20050;-83
2023/07/01 12:16:52;;;;;;;9.65;3.63;;;;;;;;;;4978265;28;20038;-83
2023/07/01 12:19:22;;;;;;;7.50;3.50;;;;;;;;;;4993700;28;20084;-82
2023/07/01 12:21:49;;;;;;;7.78;3.53;;;;;;;;;;5034768;28;20037;-81
2023/07/01 12:24:16;;;;;;;5.70;3.30;;;;;;;;;;5016766;28;20098;-82
2023/07/01 12:26:43;;;;;;;5.05;3.40;;;;;;;;;;5044525;28;20119;-85
2023/07/01 12:29:09;;;;;;;6.55;3.58;;;;;;;;;;5010282;28;20156;-84
2023/07/01 12:31:36;;;;;;;7.53;3.20;;;;;;;;;;4998491;28;20124;-83
2023/07/01 12:34:03;;;;;;;5.28;3.15;;;;;;;;;;5011526;28;20057;-82
2023/07/01 12:36:30;;;;;;;7.15;3.47;;;;;;;;;;5028059;28;20054;-81
2023/07/01 12:38:58;;;;;;;10.73;3.08;;;;;;;;;;5007313;28;20075;-87
2023/07/01 12:41:28;;;;;;;8.73;3.80;;;;;;;;;;5012144;28;20054;-83
2023/07/01 12:43:55;;;;;;;9.00;3.55;;;;;;;;;;4996608;28;20541;-84
2023/07/01 12:46:22;;;;;;;6.95;3.47;;;;;;;;;;5006213;28;20077;-85
2023/07/01 12:48:49;;;;;;;11.25;3.65;;;;;;;;;;5012048;28;20604;-81
2023/07/01 12:51:16;;;;;;;7.97;3.15;;;;;;;;;;5010899;28;20532;-81
2023/07/01 12:53:42;;;;;;;6.88;3.15;;;;;;;;;;5027380;28;20107;-82
2023/07/01 12:56:09;;;;;;;10.45;3.28;;;;;;;;;;5032749;28;20038;-81
2023/07/01 12:58:37;;;;;;;4.55;2.97;;;;;;;;;;5021727;28;20049;-79
2023/07/01 13:01:07;;;;;;;9.98;3.05;;;;;;;;;;5037047;28;20497;-79
2023/07/01 13:03:34;;;;;;;7.05;3.70;;;;;;;;;;5046450;28;20445;-79
2023/07/01 13:06:01;;;;;;;7.60;3.40;;;;;;;;;;5035233;28;20322;-79
2023/07/01 13:08:28;;;;;;;7.85;3.47;;;;;;;;;;5018321;28;20132;-79
2023/07/01 13:10:55;;;;;;;8.48;3.90;;;;;;;;;;5015255;28;20062;-78
2023/07/01 13:13:22;;;;;;;7.35;3.00;;;;;;;;;;5015933;28;20557;-79
2023/07/01 13:15:49;;;;;;;6.18;3.08;;;;;;;;;;5015412;28;20038;-81
2023/07/01 13:18:17;;;;;;;7.53;3.25;;;;;;;;;;4996223;28;20033;-80
2023/07/01 13:20:44;;;;;;;6.13;3.38;;;;;;;;;;5015369;28;20524;-80
2023/07/01 13:23:11;;;;;;;5.95;3.50;;;;;;;;;;5016146;28;20046;-79
2023/07/01 13:25:37;;;;;;;8.55;3.55;;;;;;;;;;5015370;28;20062;-81
2023/07/01 13:28:04;;;;;;;6.30;3.55;;;;;;;;;;5018044;28;20038;-80
2023/07/01 13:30:34;;;;;;;5.38;3.33;;;;;;;;;;5020910;28;20133;-80
2023/07/01 13:33:02;;;;;;;7.00;3.10;;;;;;;;;;5009136;28;20049;-80
2023/07/01 13:35:29;;;;;;;6.63;2.88;;;;;;;;;;5013217;28;20064;-80
2023/07/01 13:38:01;;;;;;;6.93;3.30;;;;;;;;;;4996355;28;20042;-79
2023/07/01 13:40:28;;;;;;;8.73;2.88;;;;;;;;;;5013184;28;20045;-80
2023/07/01 13:42:54;;;;;;;6.05;2.97;;;;;;;;;;5011694;28;20045;-82
2023/07/01 13:45:25;;;;;;;9.65;3.00;;;;;;;;;;5011022;28;20045;-81
2023/07/01 13:47:52;;;;;;;6.20;3.22;;;;;;;;;;5017898;28;20511;-79
2023/07/01 13:50:20;;;;;;;6.22;3.15;;;;;;;;;;5018950;28;20073;-81
2023/07/01 13:52:48;;;;;;;9.25;3.58;;;;;;;;;;5018477;28;20116;-79
2023/07/01 13:55:16;;;;;;;8.50;3.05;;;;;;;;;;5020936;28;20058;-79
2023/07/01 13:57:45;;;;;;;5.80;3.10;;;;;;;;;;5021500;28;20060;-80
2023/07/01 14:00:30;;;;;;;12.43;2.85;;;;;;;;;;5015012;28;20046;-80
2023/07/01 14:02:57;;;;;;;11.33;2.90;;;;;;;;;;4999907;28;20072;-81
2023/07/01 14:05:24;;;;;;;5.80;2.97;;;;;;;;;;5016989;28;20054;-81
2023/07/01 14:08:00;;;;;;;9.75;2.95;;;;;;;;;;5017815;28;20050;-79
2023/07/01 14:10:28;;;;;;;7.32;2.80;;;;;;;;;;5017051;28;20053;-82
2023/07/01 14:12:56;;;;;;;4.97;2.55;;;;;;;;;;5016594;28;20130;-82
2023/07/01 14:15:32;;;;;;;9.38;2.83;;;;;;;;;;5020884;28;20046;-79
2023/07/01 14:17:59;;;;;;;7.45;2.63;;;;;;;;;;4997779;28;20061;-79
2023/07/01 14:20:25;;;;;;;9.13;2.72;;;;;;;;;;4999985;28;20088;-80
2023/07/01 14:22:57;;;;;;;7.60;2.97;;;;;;;;;;5001513;28;20084;-81
2023/07/01 14:25:30;;;;;;;9.57;2.70;;;;;;;;;;5020644;28;20042;-83
2023/07/01 14:27:56;;;;;;;4.32;2.40;;;;;;;;;;5019347;28;20120;-81
2023/07/01 14:30:40;;;;;;;6.72;2.72;;;;;;;;;;5021305;28;20054;-80
2023/07/01 14:33:07;;;;;;;8.38;2.60;;;;;;;;;;5021471;28;20056;-80
2023/07/01 14:35:33;;;;;;;6.18;2.40;;;;;;;;;;5023617;28;20497;-81
2023/07/01 14:38:00;;;;;;;9.10;2.88;;;;;;;;;;5020422;28;20546;-81